中部国際空港の過去48時間の天気

中部国際空港 (Chubu Centrair International)

現在時刻: 7/16 15:51 JST (7/16 06:51 UTC) 以下の時間は現地時間です。

過去48時間のMETAR気象情報
時間 風向 風速(m/s) 視程 気温(℃) 湿度(%) 気圧(hPa) 天気現象
16 15:30 5 10km以上 32 75 1010
16 15:00 6 10km以上 32 71 1010
16 14:30 7 10km以上 31 75 1010
16 14:00 6 10km以上 32 71 1010
16 13:30 4 10km以上 31 75 1010
16 13:00 4 9000m 31 75 1010
16 12:30 4 9000m 31 75 1011
16 12:00 4 10km以上 30 75 1011
16 11:30 南南西 3 10km以上 30 79 1011
16 11:00 南西 3 10km以上 30 75 1012
16 10:30 西南西 3 10km以上 30 75 1012
16 10:00 西 3 10km以上 30 75 1012
16 09:30 西 3 10km以上 30 79 1012
16 09:00 北西 3 8000m 29 79 1012
16 08:30 北西 3 7000m 29 79 1012
16 08:00 北西 4 7000m 29 79 1013
16 07:30 北北西 3 7000m 28 84 1013
16 07:00 北北西 3 7000m 28 84 1012
16 06:30 北東 2 6000m 28 84 1012
16 06:00 北東 2 7000m 28 84 1012
16 05:30 北北東 2 7000m 27 89 1012
16 05:00 2 7000m 27 89 1012
16 04:30 不定 1 8000m 27 89 1012
16 04:00 1 8000m 27 89 1011
16 03:30 東南東 2 8000m 27 89 1011
16 03:00 東南東 2 9000m 27 89 1011
16 02:30 南東 2 10km以上 28 84 1011
16 02:00 東南東 3 10km以上 28 84 1011
16 01:30 東南東 4 10km以上 28 84 1011
16 01:00 3 10km以上 28 84 1012
16 00:30 東南東 4 10km以上 28 84 1012
16 00:00 東南東 4 10km以上 28 84 1012
15 23:30 東南東 5 10km以上 28 84 1012
15 23:00 東南東 5 10km以上 28 84 1012
15 22:30 東南東 5 10km以上 28 84 1012
15 22:00 東南東 4 10km以上 28 84 1012
15 21:30 東南東 5 10km以上 28 84 1011
15 21:00 東南東 5 10km以上 28 84 1011
15 20:30 東南東 5 10km以上 29 74 1011
15 20:00 東南東 5 10km以上 29 74 1011
15 19:30 南東 5 10km以上 29 70 1011
15 19:00 南東 5 10km以上 30 66 1010
15 18:30 南東 6 10km以上 30 70 1010
15 18:00 南東 6 10km以上 30 70 1010
15 17:30 南南東 5 10km以上 31 66 1010
15 17:00 南南東 6 10km以上 32 67 1010
15 16:30 南南東 5 10km以上 32 67 1010
15 16:00 南南東 6 10km以上 32 67 1010
15 15:30 6 10km以上 31 70 1010
15 15:00 6 10km以上 31 70 1010
15 14:30 6 10km以上 31 75 1010
15 14:00 5 10km以上 31 70 1011
15 13:30 4 10km以上 31 66 1011
15 13:00 4 10km以上 31 66 1011
15 12:30 南南西 4 10km以上 30 70 1012
15 12:00 南南西 3 10km以上 30 70 1012
15 11:30 南西 3 10km以上 30 70 1012
15 11:00 南西 3 10km以上 30 75 1012
15 10:30 南西 3 10km以上 29 79 1012
15 10:00 西南西 3 10km以上 29 79 1013
15 09:30 南西 3 8000m 29 79 1012
15 09:00 南西 3 9000m 29 79 1012
15 08:30 南西 2 9000m 28 84 1012
15 08:00 南西 2 9000m 28 84 1012
15 07:30 不定 1 9000m 29 84 1012
15 07:00 南東 2 9000m 28 84 1012
15 06:30 不定 1 9000m 28 84 1012
15 06:00 不定 1 8000m 27 89 1012
15 05:30 東北東 2 7000m 27 89 1012
15 05:00 1 6000m 27 89 1011
15 04:30 南南東 1 7000m 26 94 1011
RJGG 160630Z 17010KT 9999 FEW025 BKN/// 32/27 Q1010 NOSIG
RJGG 160600Z 17012KT 9999 FEW025 BKN/// 32/26 Q1010 NOSIG
RJGG 160530Z 17013KT 9999 FEW025 BKN/// 31/26 Q1010 NOSIG
RJGG 160500Z 17012KT 9999 FEW025 BKN/// 32/26 Q1010 NOSIG
RJGG 160430Z 18008KT 9999 FEW025 BKN/// 31/26 Q1010 NOSIG
RJGG 160400Z 17008KT 9000 FEW025 BKN/// 31/26 Q1010 NOSIG
RJGG 160330Z 19008KT 9000 FEW025 BKN/// 31/26 Q1011 NOSIG
RJGG 160300Z 19007KT 9999 FEW020 BKN/// 30/25 Q1011 NOSIG
RJGG 160230Z 20006KT 9999 FEW020 BKN/// 30/26 Q1011 NOSIG
RJGG 160200Z 22005KT 9999 FEW020 BKN/// 30/25 Q1012 NOSIG
RJGG 160130Z 24005KT 9999 FEW015 BKN/// 30/25 Q1012 NOSIG
RJGG 160100Z 26005KT 9999 FEW015 BKN/// 30/25 Q1012 BECMG 22007KT
RJGG 160030Z 28006KT 9999 FEW015 BKN/// 30/26 Q1012 BECMG 24005KT
RJGG 160000Z 31005KT 8000 FEW015 SCT/// 29/25 Q1012 NOSIG
RJGG 152330Z 32006KT 7000 FEW015 SCT/// 29/25 Q1012 NOSIG
RJGG 152300Z 32007KT 7000 FEW010 SCT015 BKN/// 29/25 Q1013 NOSIG
RJGG 152230Z 33006KT 7000 FEW010 SCT015 BKN/// 28/25 Q1013 NOSIG
RJGG 152200Z 33006KT 7000 FEW010 SCT016 BKN/// 28/25 Q1012 NOSIG
RJGG 152130Z 05004KT 6000 FEW010 SCT016 BKN/// 28/25 Q1012 NOSIG
RJGG 152100Z 04003KT 7000 FEW010 SCT016 BKN/// 28/25 Q1012 NOSIG
RJGG 152030Z 02003KT 7000 FEW010 SCT017 BKN/// 27/25 Q1012 NOSIG
RJGG 152000Z 10004KT 7000 FEW006 SCT010 BKN013 27/25 Q1012 BECMG 02005KT FEW006 SCT013
RJGG 151930Z VRB01KT 8000 FEW006 SCT008 BKN012 27/25 Q1012 BECMG 02005KT FEW006 SCT012
RJGG 151900Z 09002KT 8000 FEW006 BKN012 27/25 Q1011 BECMG 02005KT
RJGG 151830Z 12003KT 8000 FEW015 SCT/// 27/25 Q1011 BECMG 02005KT
RJGG 151800Z 11003KT 9000 FEW020 SCT/// 27/25 Q1011 BECMG 02005KT
RJGG 151730Z 13003KT 9999 FEW020 28/25 Q1011 BECMG 02005KT
RJGG 151700Z 12006KT 9999 FEW020 28/25 Q1011 NOSIG
RJGG 151630Z 12007KT 9999 FEW020 28/25 Q1011 NOSIG
RJGG 151600Z 10006KT 9999 FEW020 28/25 Q1012 NOSIG
RJGG 151530Z 11007KT 9999 FEW020 28/25 Q1012 NOSIG
RJGG 151500Z 11008KT 9999 FEW020 28/25 Q1012 NOSIG
RJGG 151430Z 11009KT 9999 FEW020 28/25 Q1012 NOSIG
RJGG 151400Z 12009KT 9999 FEW020 28/25 Q1012 NOSIG
RJGG 151330Z 11009KT 9999 FEW020 28/25 Q1012 NOSIG
RJGG 151300Z 12008KT 9999 FEW020 28/25 Q1012 NOSIG
RJGG 151230Z 12009KT 9999 FEW020 28/25 Q1011 NOSIG
RJGG 151200Z 12009KT 9999 FEW020 28/25 Q1011 NOSIG
RJGG 151130Z 11009KT 9999 FEW020 29/24 Q1011 NOSIG
RJGG 151100Z 12009KT 9999 FEW020 29/24 Q1011 NOSIG
RJGG 151030Z 13009KT 9999 FEW030 29/23 Q1011 NOSIG
RJGG 151000Z 14010KT 9999 FEW020 30/23 Q1010 NOSIG
RJGG 150930Z 13011KT 9999 FEW020 30/24 Q1010 NOSIG
RJGG 150900Z 14011KT 9999 FEW020 30/24 Q1010 NOSIG
RJGG 150830Z 15010KT 9999 FEW020 31/24 Q1010 NOSIG
RJGG 150800Z 16011KT 9999 FEW020 32/25 Q1010 NOSIG
RJGG 150730Z 16010KT 9999 FEW020 32/25 Q1010 NOSIG
RJGG 150700Z 16011KT 9999 FEW020 32/25 Q1010 NOSIG
RJGG 150630Z 17012KT 9999 FEW020 31/25 Q1010 NOSIG
RJGG 150600Z 17012KT 9999 FEW020 31/25 Q1010 NOSIG
RJGG 150530Z 17011KT 9999 FEW020 31/26 Q1010 NOSIG
RJGG 150500Z 17009KT 9999 FEW020 31/25 Q1011 NOSIG
RJGG 150430Z 19007KT 9999 FEW020 31/24 Q1011 NOSIG
RJGG 150400Z 19007KT 9999 FEW020 31/24 Q1011 NOSIG
RJGG 150330Z 20007KT 9999 FEW015 30/24 Q1012 NOSIG
RJGG 150300Z 20006KT 9999 FEW015 30/24 Q1012 NOSIG
RJGG 150230Z 22005KT 9999 FEW015 30/24 Q1012 NOSIG
RJGG 150200Z 22005KT 9999 FEW015 30/25 Q1012 NOSIG
RJGG 150130Z 22005KT 9999 FEW015 29/25 Q1012 NOSIG
RJGG 150100Z 24005KT 9999 FEW015 29/25 Q1013 NOSIG
RJGG 150030Z 23005KT 8000 FEW015 29/25 Q1012 NOSIG
RJGG 150000Z 22005KT 9000 FEW010 29/25 Q1012 NOSIG
RJGG 142330Z 22003KT 9000 FEW010 28/25 Q1012 NOSIG
RJGG 142300Z 23004KT 9000 FEW010 28/25 Q1012 NOSIG
RJGG 142230Z VRB02KT 9000 FEW010 29/26 Q1012 BECMG 22005KT
RJGG 142200Z 14003KT 9000 FEW015 28/25 Q1012 NOSIG
RJGG 142130Z VRB02KT 9000 FEW020 28/25 Q1012 BECMG 14005KT
RJGG 142100Z VRB01KT 8000 FEW020 27/25 Q1012 BECMG 14005KT
RJGG 142030Z 06003KT 7000 FEW007 27/25 Q1012 BECMG 12005KT
RJGG 142000Z 09002KT 6000 FEW007 27/25 Q1011 NOSIG
RJGG 141930Z 15002KT 7000 FEW020 26/25 Q1011 NOSIG